Highland Plt, Maine
Current Conditions -  °F | °C
As of 12:35 AM on Tuesday 27 Jan 2015 (Local Time) from KWVL Reporting Station
Scattered Clouds Scattered Clouds  
Wind Chill: -8°   Ceiling: Unl
Heat Index: 10°   Visibility: 10mi
Dew Point: -9°   Wind: 18mph
Humidity: 41%   Direction: 20°NNE
Pressure: 30.04"   Gusts: 26mph
Location:  45.0341°N, 70.0886°W
Report Text: KWVL 270535Z 02016G23KT 10SM SCT070 M12/M23 A3004 RMK AO1
Loading
Personal Weather Stations






























Interactive Weather Map New forecast layout! Learn more

10-Day Weather Forecast

Advertisements
Track Severe Weather on mobile